sensor_id;sensor_type;location;lat;lon;timestamp;pressure;altitude;pressure_sealevel;temperature;humidity
19748;BME280;10032;51.386;12.516;2023-12-20T00:01:40;99762.66;;;7.17;100.00
19748;BME280;10032;51.386;12.516;2023-12-20T00:04:06;99761.88;;;7.16;100.00
19748;BME280;10032;51.386;12.516;2023-12-20T00:06:31;99764.34;;;7.18;100.00
19748;BME280;10032;51.386;12.516;2023-12-20T00:08:57;99756.00;;;7.19;100.00
19748;BME280;10032;51.386;12.516;2023-12-20T00:11:25;99748.97;;;7.18;100.00
19748;BME280;10032;51.386;12.516;2023-12-20T00:13:50;99753.06;;;7.21;100.00
19748;BME280;10032;51.386;12.516;2023-12-20T00:16:16;99749.81;;;7.19;100.00
19748;BME280;10032;51.386;12.516;2023-12-20T00:18:42;99749.47;;;7.15;100.00
19748;BME280;10032;51.386;12.516;2023-12-20T00:21:07;99742.31;;;7.09;100.00
19748;BME280;10032;51.386;12.516;2023-12-20T00:23:32;99738.81;;;7.09;100.00
19748;BME280;10032;51.386;12.516;2023-12-20T00:25:58;99746.06;;;7.08;100.00
19748;BME280;10032;51.386;12.516;2023-12-20T00:28:23;99744.53;;;7.12;100.00
19748;BME280;10032;51.386;12.516;2023-12-20T00:30:49;99738.81;;;7.09;100.00
19748;BME280;10032;51.386;12.516;2023-12-20T00:33:14;99741.28;;;7.10;100.00
19748;BME280;10032;51.386;12.516;2023-12-20T00:35:40;99740.44;;;7.10;100.00
19748;BME280;10032;51.386;12.516;2023-12-20T00:38:05;99723.09;;;7.06;100.00
19748;BME280;10032;51.386;12.516;2023-12-20T00:40:32;99727.31;;;7.02;100.00
19748;BME280;10032;51.386;12.516;2023-12-20T00:42:58;99738.47;;;7.05;100.00
19748;BME280;10032;51.386;12.516;2023-12-20T00:45:23;99730.97;;;7.07;100.00
19748;BME280;10032;51.386;12.516;2023-12-20T00:47:49;99723.94;;;7.06;100.00
19748;BME280;10032;51.386;12.516;2023-12-20T00:50:14;99729.56;;;7.05;100.00
19748;BME280;10032;51.386;12.516;2023-12-20T00:52:40;99735.28;;;7.08;100.00
19748;BME280;10032;51.386;12.516;2023-12-20T00:55:05;99728.25;;;7.07;100.00
19748;BME280;10032;51.386;12.516;2023-12-20T00:57:31;99716.09;;;7.05;100.00
19748;BME280;10032;51.386;12.516;2023-12-20T00:59:56;99714.91;;;7.01;100.00
19748;BME280;10032;51.386;12.516;2023-12-20T01:02:22;99718.78;;;7.05;100.00
19748;BME280;10032;51.386;12.516;2023-12-20T01:04:47;99715.88;;;7.06;100.00
19748;BME280;10032;51.386;12.516;2023-12-20T01:07:12;99720.41;;;7.06;100.00
19748;BME280;10032;51.386;12.516;2023-12-20T01:09:38;99722.53;;;7.04;100.00
19748;BME280;10032;51.386;12.516;2023-12-20T01:12:03;99715.53;;;7.03;100.00
19748;BME280;10032;51.386;12.516;2023-12-20T01:14:29;99722.78;;;7.02;100.00
19748;BME280;10032;51.386;12.516;2023-12-20T01:16:54;99724.06;;;7.00;100.00
19748;BME280;10032;51.386;12.516;2023-12-20T01:19:19;99724.91;;;7.00;100.00
19748;BME280;10032;51.386;12.516;2023-12-20T01:21:45;99726.03;;;7.04;100.00
19748;BME280;10032;51.386;12.516;2023-12-20T01:24:10;99712.69;;;7.09;100.00
19748;BME280;10032;51.386;12.516;2023-12-20T01:26:35;99709.41;;;7.07;100.00
19748;BME280;10032;51.386;12.516;2023-12-20T01:29:01;99701.34;;;7.07;100.00
19748;BME280;10032;51.386;12.516;2023-12-20T01:31:26;99700.28;;;7.08;100.00
19748;BME280;10032;51.386;12.516;2023-12-20T01:33:52;99685.63;;;7.04;100.00
19748;BME280;10032;51.386;12.516;2023-12-20T01:36:18;99694.53;;;7.05;100.00
19748;BME280;10032;51.386;12.516;2023-12-20T01:38:43;99695.13;;;7.07;100.00
19748;BME280;10032;51.386;12.516;2023-12-20T01:41:08;99687.53;;;7.04;100.00
19748;BME280;10032;51.386;12.516;2023-12-20T01:43:34;99690.44;;;7.02;100.00
19748;BME280;10032;51.386;12.516;2023-12-20T01:46:00;99688.00;;;7.01;100.00
19748;BME280;10032;51.386;12.516;2023-12-20T01:48:27;99685.31;;;7.01;100.00
19748;BME280;10032;51.386;12.516;2023-12-20T01:50:54;99684.22;;;7.02;100.00
19748;BME280;10032;51.386;12.516;2023-12-20T01:53:21;99680.50;;;7.03;100.00
19748;BME280;10032;51.386;12.516;2023-12-20T01:55:50;99671.59;;;7.02;100.00
19748;BME280;10032;51.386;12.516;2023-12-20T01:58:17;99675.59;;;7.00;100.00
19748;BME280;10032;51.386;12.516;2023-12-20T02:00:44;99678.06;;;7.01;100.00
19748;BME280;10032;51.386;12.516;2023-12-20T02:03:09;99675.34;;;7.01;100.00
19748;BME280;10032;51.386;12.516;2023-12-20T02:05:35;99682.28;;;6.97;100.00
19748;BME280;10032;51.386;12.516;2023-12-20T02:08:02;99681.22;;;6.98;100.00
19748;BME280;10032;51.386;12.516;2023-12-20T02:10:28;99676.31;;;6.95;100.00
19748;BME280;10032;51.386;12.516;2023-12-20T02:12:54;99676.88;;;6.97;100.00
19748;BME280;10032;51.386;12.516;2023-12-20T02:15:20;99674.41;;;6.96;100.00
19748;BME280;10032;51.386;12.516;2023-12-20T02:17:47;99676.41;;;7.00;100.00
19748;BME280;10032;51.386;12.516;2023-12-20T02:20:13;99666.34;;;6.96;100.00
19748;BME280;10032;51.386;12.516;2023-12-20T02:22:39;99660.16;;;6.95;100.00
19748;BME280;10032;51.386;12.516;2023-12-20T02:25:05;99668.81;;;6.97;100.00
19748;BME280;10032;51.386;12.516;2023-12-20T02:27:30;99659.09;;;6.96;100.00
19748;BME280;10032;51.386;12.516;2023-12-20T02:29:56;99650.78;;;6.98;100.00
19748;BME280;10032;51.386;12.516;2023-12-20T02:32:22;99649.16;;;6.97;100.00
19748;BME280;10032;51.386;12.516;2023-12-20T02:34:51;99649.38;;;6.95;100.00
19748;BME280;10032;51.386;12.516;2023-12-20T02:37:16;99652.53;;;6.92;100.00
19748;BME280;10032;51.386;12.516;2023-12-20T02:39:42;99652.88;;;6.96;100.00
19748;BME280;10032;51.386;12.516;2023-12-20T02:42:07;99656.16;;;6.98;100.00
19748;BME280;10032;51.386;12.516;2023-12-20T02:44:32;99650.78;;;6.98;100.00
19748;BME280;10032;51.386;12.516;2023-12-20T02:46:58;99655.34;;;6.97;100.00
19748;BME280;10032;51.386;12.516;2023-12-20T02:49:23;99658.13;;;7.02;100.00
19748;BME280;10032;51.386;12.516;2023-12-20T02:51:49;99657.31;;;7.02;100.00
19748;BME280;10032;51.386;12.516;2023-12-20T02:54:14;99661.06;;;7.01;100.00
19748;BME280;10032;51.386;12.516;2023-12-20T02:56:40;99654.38;;;7.03;100.00
19748;BME280;10032;51.386;12.516;2023-12-20T02:59:05;99643.16;;;6.95;100.00
19748;BME280;10032;51.386;12.516;2023-12-20T03:01:31;99646.19;;;6.98;100.00
19748;BME280;10032;51.386;12.516;2023-12-20T03:03:57;99636.50;;;6.97;100.00
19748;BME280;10032;51.386;12.516;2023-12-20T03:06:22;99641.88;;;6.97;100.00
19748;BME280;10032;51.386;12.516;2023-12-20T03:08:47;99634.63;;;6.98;100.00
19748;BME280;10032;51.386;12.516;2023-12-20T03:11:13;99634.84;;;6.96;100.00
19748;BME280;10032;51.386;12.516;2023-12-20T03:13:38;99633.81;;;6.97;100.00
19748;BME280;10032;51.386;12.516;2023-12-20T03:16:11;99628.41;;;6.97;100.00
19748;BME280;10032;51.386;12.516;2023-12-20T03:18:36;99643.28;;;7.00;100.00
19748;BME280;10032;51.386;12.516;2023-12-20T03:21:02;99638.72;;;7.00;100.00
19748;BME280;10032;51.386;12.516;2023-12-20T03:23:29;99631.69;;;6.99;100.00
19748;BME280;10032;51.386;12.516;2023-12-20T03:25:55;99633.34;;;7.00;100.00
19748;BME280;10032;51.386;12.516;2023-12-20T03:28:21;99639.06;;;7.04;100.00
19748;BME280;10032;51.386;12.516;2023-12-20T03:30:46;99639.84;;;7.04;100.00
19748;BME280;10032;51.386;12.516;2023-12-20T03:33:12;99634.47;;;7.04;100.00
19748;BME280;10032;51.386;12.516;2023-12-20T03:35:37;99618.31;;;7.04;100.00
19748;BME280;10032;51.386;12.516;2023-12-20T03:38:02;99636.59;;;7.02;100.00
19748;BME280;10032;51.386;12.516;2023-12-20T03:40:28;99629.56;;;7.01;100.00
19748;BME280;10032;51.386;12.516;2023-12-20T03:42:53;99642.81;;;7.03;100.00
19748;BME280;10032;51.386;12.516;2023-12-20T03:45:19;99645.97;;;7.00;100.00
19748;BME280;10032;51.386;12.516;2023-12-20T03:47:44;99637.16;;;7.04;100.00
19748;BME280;10032;51.386;12.516;2023-12-20T03:50:10;99642.22;;;7.01;100.00
19748;BME280;10032;51.386;12.516;2023-12-20T03:52:35;99638.72;;;7.00;100.00
19748;BME280;10032;51.386;12.516;2023-12-20T03:55:00;99633.06;;;7.02;100.00
19748;BME280;10032;51.386;12.516;2023-12-20T03:57:26;99633.91;;;7.02;100.00
19748;BME280;10032;51.386;12.516;2023-12-20T03:59:51;99641.16;;;7.02;100.00
19748;BME280;10032;51.386;12.516;2023-12-20T04:02:17;99641.97;;;7.02;100.00
19748;BME280;10032;51.386;12.516;2023-12-20T04:04:43;99638.81;;;7.05;100.00
19748;BME280;10032;51.386;12.516;2023-12-20T04:07:08;99639.78;;;6.99;100.00
19748;BME280;10032;51.386;12.516;2023-12-20T04:09:34;99637.09;;;6.99;100.00
19748;BME280;10032;51.386;12.516;2023-12-20T04:11:59;99643.50;;;6.98;100.00
19748;BME280;10032;51.386;12.516;2023-12-20T04:14:24;99651.59;;;6.98;100.00
19748;BME280;10032;51.386;12.516;2023-12-20T04:16:50;99640.34;;;7.01;100.00
19748;BME280;10032;51.386;12.516;2023-12-20T04:19:15;99640.91;;;7.03;100.00
19748;BME280;10032;51.386;12.516;2023-12-20T04:21:41;99643.59;;;7.03;100.00
19748;BME280;10032;51.386;12.516;2023-12-20T04:24:06;99633.91;;;7.02;100.00
19748;BME280;10032;51.386;12.516;2023-12-20T04:26:32;99643.28;;;7.00;100.00
19748;BME280;10032;51.386;12.516;2023-12-20T04:28:57;99654.53;;;6.97;100.00
19748;BME280;10032;51.386;12.516;2023-12-20T04:31:22;99649.97;;;6.97;100.00
19748;BME280;10032;51.386;12.516;2023-12-20T04:33:48;99653.59;;;7.03;100.00
19748;BME280;10032;51.386;12.516;2023-12-20T04:36:13;99640.81;;;6.98;100.00
19748;BME280;10032;51.386;12.516;2023-12-20T04:38:39;99649.97;;;6.97;100.00
19748;BME280;10032;51.386;12.516;2023-12-20T04:41:04;99641.41;;;7.00;100.00
19748;BME280;10032;51.386;12.516;2023-12-20T04:43:30;99641.41;;;7.00;100.00
19748;BME280;10032;51.386;12.516;2023-12-20T04:45:55;99643.59;;;7.03;100.00
19748;BME280;10032;51.386;12.516;2023-12-20T04:48:20;99638.81;;;7.05;100.00
19748;BME280;10032;51.386;12.516;2023-12-20T04:50:46;99640.91;;;7.03;100.00
19748;BME280;10032;51.386;12.516;2023-12-20T04:53:11;99646.78;;;7.00;100.00
19748;BME280;10032;51.386;12.516;2023-12-20T04:55:37;99644.22;;;7.05;100.00
19748;BME280;10032;51.386;12.516;2023-12-20T04:58:02;99652.97;;;7.12;100.00
19748;BME280;10032;51.386;12.516;2023-12-20T05:00:27;99647.47;;;7.07;100.00
19748;BME280;10032;51.386;12.516;2023-12-20T05:02:53;99657.19;;;7.08;100.00
19748;BME280;10032;51.386;12.516;2023-12-20T05:05:19;99655.66;;;7.12;100.00
19748;BME280;10032;51.386;12.516;2023-12-20T05:07:44;99662.66;;;7.13;100.00
19748;BME280;10032;51.386;12.516;2023-12-20T05:10:09;99671.72;;;7.07;100.00
19748;BME280;10032;51.386;12.516;2023-12-20T05:12:35;99662.56;;;7.08;100.00
19748;BME280;10032;51.386;12.516;2023-12-20T05:15:00;99673.34;;;7.08;100.00
19748;BME280;10032;51.386;12.516;2023-12-20T05:17:26;99684.09;;;7.08;100.00
19748;BME280;10032;51.386;12.516;2023-12-20T05:19:51;99678.72;;;7.08;100.00
19748;BME280;10032;51.386;12.516;2023-12-20T05:22:19;99684.84;;;7.04;100.00
19748;BME280;10032;51.386;12.516;2023-12-20T05:24:44;99692.09;;;7.03;100.00
19748;BME280;10032;51.386;12.516;2023-12-20T05:27:09;99681.09;;;7.05;100.00
19748;BME280;10032;51.386;12.516;2023-12-20T05:29:35;99678.25;;;7.11;100.00
19748;BME280;10032;51.386;12.516;2023-12-20T05:32:00;99681.53;;;7.13;100.00
19748;BME280;10032;51.386;12.516;2023-12-20T05:34:26;99676.13;;;7.13;100.00
19748;BME280;10032;51.386;12.516;2023-12-20T05:36:51;99685.84;;;7.14;100.00
19748;BME280;10032;51.386;12.516;2023-12-20T05:39:16;99681.63;;;7.18;100.00
19748;BME280;10032;51.386;12.516;2023-12-20T05:41:42;99669.22;;;7.17;100.00
19748;BME280;10032;51.386;12.516;2023-12-20T05:44:07;99681.53;;;7.13;100.00
19748;BME280;10032;51.386;12.516;2023-12-20T05:46:33;99682.59;;;7.12;100.00
19748;BME280;10032;51.386;12.516;2023-12-20T05:48:58;99678.50;;;7.10;100.00
19748;BME280;10032;51.386;12.516;2023-12-20T05:51:23;99686.81;;;7.08;100.00
19748;BME280;10032;51.386;12.516;2023-12-20T05:53:49;99695.13;;;7.07;100.00
19748;BME280;10032;51.386;12.516;2023-12-20T05:56:15;99716.44;;;7.08;100.00
19748;BME280;10032;51.386;12.516;2023-12-20T05:58:40;99702.97;;;7.08;100.00
19748;BME280;10032;51.386;12.516;2023-12-20T06:01:06;99706.81;;;7.12;100.00
19748;BME280;10032;51.386;12.516;2023-12-20T06:03:33;99713.84;;;7.13;100.00
19748;BME280;10032;51.386;12.516;2023-12-20T06:05:59;99714.34;;;7.10;100.00
19748;BME280;10032;51.386;12.516;2023-12-20T06:08:25;99706.81;;;7.12;100.00
19748;BME280;10032;51.386;12.516;2023-12-20T06:10:51;99703.56;;;7.10;100.00
19748;BME280;10032;51.386;12.516;2023-12-20T06:13:16;99700.59;;;7.12;100.00
19748;BME280;10032;51.386;12.516;2023-12-20T06:15:42;99687.97;;;7.12;100.00
19748;BME280;10032;51.386;12.516;2023-12-20T06:18:07;99682.81;;;7.11;100.00
19748;BME280;10032;51.386;12.516;2023-12-20T06:20:33;99692.19;;;7.08;100.00
19748;BME280;10032;51.386;12.516;2023-12-20T06:22:58;99693.16;;;7.02;100.00
19748;BME280;10032;51.386;12.516;2023-12-20T06:25:24;99703.81;;;6.97;100.00
19748;BME280;10032;51.386;12.516;2023-12-20T06:27:49;99705.94;;;6.95;100.00
19748;BME280;10032;51.386;12.516;2023-12-20T06:30:15;99705.81;;;6.90;100.00
19748;BME280;10032;51.386;12.516;2023-12-20T06:32:41;99703.59;;;6.87;100.00
19748;BME280;10032;51.386;12.516;2023-12-20T06:35:08;99703.03;;;6.85;100.00
19748;BME280;10032;51.386;12.516;2023-12-20T06:37:34;99695.41;;;6.82;100.00
19748;BME280;10032;51.386;12.516;2023-12-20T06:39:59;99697.28;;;6.82;100.00
19748;BME280;10032;51.386;12.516;2023-12-20T06:42:24;99694.00;;;6.80;100.00
19748;BME280;10032;51.386;12.516;2023-12-20T06:44:50;99702.34;;;6.78;100.00
19748;BME280;10032;51.386;12.516;2023-12-20T06:47:15;99694.25;;;6.78;100.00
19748;BME280;10032;51.386;12.516;2023-12-20T06:49:41;99696.84;;;6.73;100.00
19748;BME280;10032;51.386;12.516;2023-12-20T06:52:06;99697.53;;;6.69;100.00
19748;BME280;10032;51.386;12.516;2023-12-20T06:54:31;99689.94;;;6.66;100.00
19748;BME280;10032;51.386;12.516;2023-12-20T06:56:59;99693.66;;;6.65;100.00
19748;BME280;10032;51.386;12.516;2023-12-20T06:59:24;99699.53;;;6.62;100.00
19748;BME280;10032;51.386;12.516;2023-12-20T07:01:51;99702.94;;;6.57;100.00
19748;BME280;10032;51.386;12.516;2023-12-20T07:04:16;99702.56;;;6.54;100.00
19748;BME280;10032;51.386;12.516;2023-12-20T07:06:47;99694.25;;;6.55;100.00
19748;BME280;10032;51.386;12.516;2023-12-20T07:09:13;99696.38;;;6.53;100.00
19748;BME280;10032;51.386;12.516;2023-12-20T07:11:39;99690.50;;;6.56;100.00
19748;BME280;10032;51.386;12.516;2023-12-20T07:14:04;99689.94;;;6.54;100.00
19748;BME280;10032;51.386;12.516;2023-12-20T07:16:30;99685.41;;;6.55;100.00
19748;BME280;10032;51.386;12.516;2023-12-20T07:18:55;99671.69;;;6.56;100.00
19748;BME280;10032;51.386;12.516;2023-12-20T07:21:22;99683.28;;;6.57;100.00
19748;BME280;10032;51.386;12.516;2023-12-20T07:23:48;99688.44;;;6.58;100.00
19748;BME280;10032;51.386;12.516;2023-12-20T07:26:13;99677.44;;;6.60;100.00
19748;BME280;10032;51.386;12.516;2023-12-20T07:28:38;99682.81;;;6.60;100.00
19748;BME280;10032;51.386;12.516;2023-12-20T07:31:04;99688.44;;;6.58;100.00
19748;BME280;10032;51.386;12.516;2023-12-20T07:33:29;99701.66;;;6.60;100.00
19748;BME280;10032;51.386;12.516;2023-12-20T07:35:55;99710.31;;;6.62;100.00
19748;BME280;10032;51.386;12.516;2023-12-20T07:38:20;99709.47;;;6.61;100.00
19748;BME280;10032;51.386;12.516;2023-12-20T07:40:45;99706.78;;;6.61;100.00
19748;BME280;10032;51.386;12.516;2023-12-20T07:43:11;99723.28;;;6.65;100.00
19748;BME280;10032;51.386;12.516;2023-12-20T07:45:36;99728.41;;;6.66;100.00
19748;BME280;10032;51.386;12.516;2023-12-20T07:48:03;99724.66;;;6.67;100.00
19748;BME280;10032;51.386;12.516;2023-12-20T07:50:29;99724.22;;;6.70;100.00
19748;BME280;10032;51.386;12.516;2023-12-20T07:52:54;99716.72;;;6.72;100.00
19748;BME280;10032;51.386;12.516;2023-12-20T07:55:20;99726.91;;;6.70;100.00
19748;BME280;10032;51.386;12.516;2023-12-20T07:57:45;99728.53;;;6.71;100.00
19748;BME280;10032;51.386;12.516;2023-12-20T08:00:11;99729.59;;;6.70;100.00
19748;BME280;10032;51.386;12.516;2023-12-20T08:02:36;99738.03;;;6.74;100.00
19748;BME280;10032;51.386;12.516;2023-12-20T08:05:02;99751.25;;;6.75;100.00
19748;BME280;10032;51.386;12.516;2023-12-20T08:07:27;99737.44;;;6.72;100.00
19748;BME280;10032;51.386;12.516;2023-12-20T08:09:52;99732.06;;;6.72;100.00
19748;BME280;10032;51.386;12.516;2023-12-20T08:12:20;99725.63;;;6.73;100.00
19748;BME280;10032;51.386;12.516;2023-12-20T08:14:45;99721.28;;;6.72;100.00
19748;BME280;10032;51.386;12.516;2023-12-20T08:17:11;99721.06;;;6.73;100.00
19748;BME280;10032;51.386;12.516;2023-12-20T08:19:37;99713.00;;;6.73;100.00
19748;BME280;10032;51.386;12.516;2023-12-20T08:22:03;99724.56;;;6.74;100.00
19748;BME280;10032;51.386;12.516;2023-12-20T08:24:29;99720.00;;;6.74;100.00
19748;BME280;10032;51.386;12.516;2023-12-20T08:26:55;99726.19;;;6.75;100.00
19748;BME280;10032;51.386;12.516;2023-12-20T08:29:20;99731.34;;;6.76;100.00
19748;BME280;10032;51.386;12.516;2023-12-20T08:31:46;99730.28;;;6.77;100.00
19748;BME280;10032;51.386;12.516;2023-12-20T08:34:11;99726.91;;;6.82;100.00
19748;BME280;10032;51.386;12.516;2023-12-20T08:36:39;99723.16;;;6.83;100.00
19748;BME280;10032;51.386;12.516;2023-12-20T08:39:04;99721.38;;;6.88;100.00
19748;BME280;10032;51.386;12.516;2023-12-20T08:41:32;99735.09;;;6.87;100.00
19748;BME280;10032;51.386;12.516;2023-12-20T08:43:58;99733.69;;;6.84;100.00
19748;BME280;10032;51.386;12.516;2023-12-20T08:46:23;99730.28;;;6.89;100.00
19748;BME280;10032;51.386;12.516;2023-12-20T08:48:48;99731.34;;;6.88;100.00
19748;BME280;10032;51.386;12.516;2023-12-20T08:51:14;99726.31;;;6.91;100.00
19748;BME280;10032;51.386;12.516;2023-12-20T08:53:39;99729.00;;;6.91;100.00
19748;BME280;10032;51.386;12.516;2023-12-20T08:56:05;99725.00;;;6.94;100.00
19748;BME280;10032;51.386;12.516;2023-12-20T08:58:30;99739.31;;;6.94;100.00
19748;BME280;10032;51.386;12.516;2023-12-20T09:00:55;99738.81;;;6.97;100.00
19748;BME280;10032;51.386;12.516;2023-12-20T09:03:22;99729.44;;;7.00;100.00
19748;BME280;10032;51.386;12.516;2023-12-20T09:05:47;99730.50;;;7.10;100.00
19748;BME280;10032;51.386;12.516;2023-12-20T09:08:13;99738.06;;;7.25;100.00
19748;BME280;10032;51.386;12.516;2023-12-20T09:10:38;99728.31;;;7.35;100.00
19748;BME280;10032;51.386;12.516;2023-12-20T09:13:03;99720.31;;;7.40;100.00
19748;BME280;10032;51.386;12.516;2023-12-20T09:15:29;99717.16;;;7.43;100.00
19748;BME280;10032;51.386;12.516;2023-12-20T09:17:55;99715.25;;;7.44;100.00
19748;BME280;10032;51.386;12.516;2023-12-20T09:20:21;99715.13;;;7.50;100.00
19748;BME280;10032;51.386;12.516;2023-12-20T09:22:48;99717.69;;;7.57;100.00
19748;BME280;10032;51.386;12.516;2023-12-20T09:25:14;99718.75;;;7.56;100.00
19748;BME280;10032;51.386;12.516;2023-12-20T09:27:41;99719.00;;;7.54;100.00
19748;BME280;10032;51.386;12.516;2023-12-20T09:30:07;99716.97;;;7.61;100.00
19748;BME280;10032;51.386;12.516;2023-12-20T09:32:32;99720.34;;;7.68;100.00
19748;BME280;10032;51.386;12.516;2023-12-20T09:34:58;99718.22;;;7.70;100.00
19748;BME280;10032;51.386;12.516;2023-12-20T09:37:26;99725.91;;;7.78;100.00
19748;BME280;10032;51.386;12.516;2023-12-20T09:39:51;99723.69;;;7.75;100.00
19748;BME280;10032;51.386;12.516;2023-12-20T09:42:30;99728.25;;;7.75;100.00
19748;BME280;10032;51.386;12.516;2023-12-20T09:44:59;99731.75;;;7.87;100.00
19748;BME280;10032;51.386;12.516;2023-12-20T09:47:27;99723.47;;;7.93;100.00
19748;BME280;10032;51.386;12.516;2023-12-20T09:49:53;99718.88;;;8.05;100.00
19748;BME280;10032;51.386;12.516;2023-12-20T09:52:19;99717.06;;;8.11;100.00
19748;BME280;10032;51.386;12.516;2023-12-20T09:54:49;99721.06;;;8.08;100.00
19748;BME280;10032;51.386;12.516;2023-12-20T09:57:16;99712.97;;;8.08;100.00
19748;BME280;10032;51.386;12.516;2023-12-20T09:59:41;99705.47;;;8.10;100.00
19748;BME280;10032;51.386;12.516;2023-12-20T10:02:10;99709.19;;;8.09;100.00
19748;BME280;10032;51.386;12.516;2023-12-20T10:04:38;99708.53;;;8.02;100.00
19748;BME280;10032;51.386;12.516;2023-12-20T10:07:05;99708.97;;;7.94;100.00
19748;BME280;10032;51.386;12.516;2023-12-20T10:09:31;99707.22;;;7.88;100.00
19748;BME280;10032;51.386;12.516;2023-12-20T10:11:57;99703.56;;;7.94;100.00
19748;BME280;10032;51.386;12.516;2023-12-20T10:14:23;99699.88;;;8.00;100.00
19748;BME280;10032;51.386;12.516;2023-12-20T10:16:48;99696.13;;;8.01;100.00
19748;BME280;10032;51.386;12.516;2023-12-20T10:19:16;99688.13;;;8.06;100.00
19748;BME280;10032;51.386;12.516;2023-12-20T10:21:42;99682.91;;;8.16;100.00
19748;BME280;10032;51.386;12.516;2023-12-20T10:24:08;99679.47;;;8.21;100.00
19748;BME280;10032;51.386;12.516;2023-12-20T10:26:33;99670.56;;;8.20;100.00
19748;BME280;10032;51.386;12.516;2023-12-20T10:29:02;99667.50;;;8.17;100.00
19748;BME280;10032;51.386;12.516;2023-12-20T10:31:31;99664.34;;;8.20;100.00
19748;BME280;10032;51.386;12.516;2023-12-20T10:33:58;99667.69;;;8.27;100.00
19748;BME280;10032;51.386;12.516;2023-12-20T10:36:25;99662.97;;;8.34;100.00
19748;BME280;10032;51.386;12.516;2023-12-20T10:38:52;99649.88;;;8.42;100.00
19748;BME280;10032;51.386;12.516;2023-12-20T10:41:27;99640.19;;;8.46;100.00
19748;BME280;10032;51.386;12.516;2023-12-20T10:44:00;99652.06;;;8.45;100.00
19748;BME280;10032;51.386;12.516;2023-12-20T10:46:26;99647.16;;;8.42;100.00
19748;BME280;10032;51.386;12.516;2023-12-20T10:48:54;99642.09;;;8.46;100.00
19748;BME280;10032;51.386;12.516;2023-12-20T10:51:20;99629.06;;;8.59;100.00
19748;BME280;10032;51.386;12.516;2023-12-20T10:53:47;99630.81;;;8.70;100.00
19748;BME280;10032;51.386;12.516;2023-12-20T10:56:19;99619.69;;;8.67;100.00
19748;BME280;10032;51.386;12.516;2023-12-20T10:58:45;99620.31;;;8.74;100.00
19748;BME280;10032;51.386;12.516;2023-12-20T11:01:18;99629.38;;;8.84;100.00
19748;BME280;10032;51.386;12.516;2023-12-20T11:03:51;99619.69;;;8.88;100.00
19748;BME280;10032;51.386;12.516;2023-12-20T11:06:45;99622.28;;;9.00;100.00
19748;BME280;10032;51.386;12.516;2023-12-20T11:09:33;99621.75;;;9.24;100.00
19748;BME280;10032;51.386;12.516;2023-12-20T11:14:47;99622.28;;;9.21;100.00
19748;BME280;10032;51.386;12.516;2023-12-20T11:17:14;99610.31;;;9.17;100.00
19748;BME280;10032;51.386;12.516;2023-12-20T11:20:05;99618.97;;;9.19;100.00
19748;BME280;10032;51.386;12.516;2023-12-20T11:22:31;99603.78;;;9.13;100.00
19748;BME280;10032;51.386;12.516;2023-12-20T11:25:05;99604.81;;;9.07;100.00
19748;BME280;10032;51.386;12.516;2023-12-20T11:27:35;99608.59;;;9.06;100.00
19748;BME280;10032;51.386;12.516;2023-12-20T11:30:03;99602.53;;;8.99;100.00
19748;BME280;10032;51.386;12.516;2023-12-20T11:32:34;99601.69;;;8.94;100.00
19748;BME280;10032;51.386;12.516;2023-12-20T11:37:35;99587.88;;;8.90;100.00
19748;BME280;10032;51.386;12.516;2023-12-20T11:42:33;99572.91;;;8.83;100.00
19748;BME280;10032;51.386;12.516;2023-12-20T11:44:59;99580.84;;;8.89;100.00
19748;BME280;10032;51.386;12.516;2023-12-20T11:47:29;99585.34;;;8.84;100.00
19748;BME280;10032;51.386;12.516;2023-12-20T11:49:55;99586.66;;;8.81;100.00
19748;BME280;10032;51.386;12.516;2023-12-20T11:52:21;99575.88;;;8.81;100.00
19748;BME280;10032;51.386;12.516;2023-12-20T11:54:46;99567.75;;;8.81;100.00
19748;BME280;10032;51.386;12.516;2023-12-20T11:57:13;99560.22;;;8.83;100.00
19748;BME280;10032;51.386;12.516;2023-12-20T11:59:38;99569.03;;;8.74;100.00
19748;BME280;10032;51.386;12.516;2023-12-20T12:02:04;99560.59;;;8.70;100.00
19748;BME280;10032;51.386;12.516;2023-12-20T12:04:29;99544.41;;;8.70;100.00
19748;BME280;10032;51.386;12.516;2023-12-20T12:06:55;99539.06;;;8.75;100.00
19748;BME280;10032;51.386;12.516;2023-12-20T12:09:20;99549.88;;;8.75;100.00
19748;BME280;10032;51.386;12.516;2023-12-20T12:11:45;99538.47;;;8.73;100.00
19748;BME280;10032;51.386;12.516;2023-12-20T12:14:11;99519.38;;;8.80;100.00
19748;BME280;10032;51.386;12.516;2023-12-20T12:16:37;99514.94;;;8.90;100.00
19748;BME280;10032;51.386;12.516;2023-12-20T12:19:02;99527.34;;;8.91;100.00
19748;BME280;10032;51.386;12.516;2023-12-20T12:21:29;99513.78;;;8.86;100.00
19748;BME280;10032;51.386;12.516;2023-12-20T12:24:06;99512.41;;;8.84;100.00
19748;BME280;10032;51.386;12.516;2023-12-20T12:26:32;99510.03;;;8.87;100.00
19748;BME280;10032;51.386;12.516;2023-12-20T12:28:57;99515.44;;;8.87;100.00
19748;BME280;10032;51.386;12.516;2023-12-20T12:31:23;99514.88;;;8.85;100.00
19748;BME280;10032;51.386;12.516;2023-12-20T12:33:50;99514.63;;;8.87;100.00
19748;BME280;10032;51.386;12.516;2023-12-20T12:36:16;99501.31;;;8.80;100.00
19748;BME280;10032;51.386;12.516;2023-12-20T12:38:43;99509.97;;;8.82;100.00
19748;BME280;10032;51.386;12.516;2023-12-20T12:41:08;99504.25;;;8.79;100.00
19748;BME280;10032;51.386;12.516;2023-12-20T12:43:35;99508.28;;;8.76;100.00
19748;BME280;10032;51.386;12.516;2023-12-20T12:46:00;99495.84;;;8.75;100.00
19748;BME280;10032;51.386;12.516;2023-12-20T12:48:26;99502.34;;;8.74;100.00
19748;BME280;10032;51.386;12.516;2023-12-20T12:50:53;99496.94;;;8.74;100.00
19748;BME280;10032;51.386;12.516;2023-12-20T12:53:19;99493.16;;;8.75;100.00